Time;durP1;ratioP1;P1;durP2;ratioP2;P2;SDS_P1;SDS_P2;PMS_P1;PMS_P2;Temp;Humidity;BMP_temperature;BMP_pressure;BME280_temperature;BME280_humidity;BME280_pressure;Samples;Min_cycle;Max_cycle;Signal;HPM_P1;HPM_P2
2023/09/02 00:02:25;;;;;;;0.10;0.00;;;;;;;17.71;100.00;101064.19;5043208;28;20150;-83
2023/09/02 00:04:50;;;;;;;0.10;0.00;;;;;;;17.69;100.00;101067.00;5034210;28;20033;-83
2023/09/02 00:07:16;;;;;;;0.10;0.00;;;;;;;17.62;100.00;101062.56;5041822;28;21513;-83
2023/09/02 00:09:41;;;;;;;0.10;0.00;;;;;;;17.54;100.00;101066.91;5040115;28;20032;-83
2023/09/02 00:12:08;;;;;;;0.00;0.00;;;;;;;17.51;100.00;101066.44;5051843;28;20048;-83
2023/09/02 00:14:33;;;;;;;0.10;0.00;;;;;;;17.53;100.00;101065.25;5036690;28;20114;-83
2023/09/02 00:16:59;;;;;;;0.00;0.00;;;;;;;17.56;100.00;101069.34;5028673;28;20056;-83
2023/09/02 00:19:24;;;;;;;0.00;0.00;;;;;;;17.55;100.00;101058.00;5051986;28;20032;-83
2023/09/02 00:21:50;;;;;;;0.00;0.00;;;;;;;17.52;100.00;101057.53;5028624;28;20032;-83
2023/09/02 00:24:15;;;;;;;0.15;0.00;;;;;;;17.52;100.00;101055.72;5031067;28;20512;-83
2023/09/02 00:26:41;;;;;;;0.00;0.00;;;;;;;17.58;100.00;101056.84;5031212;28;20441;-83
2023/09/02 00:29:06;;;;;;;0.20;0.00;;;;;;;17.57;100.00;101053.38;5029648;28;20111;-83
2023/09/02 00:31:34;;;;;;;0.08;0.00;;;;;;;17.61;100.00;101055.66;5027707;28;20425;-83
2023/09/02 00:33:59;;;;;;;0.00;0.00;;;;;;;17.56;100.00;101049.09;5029228;28;20051;-83
2023/09/02 00:36:26;;;;;;;0.00;0.00;;;;;;;17.55;100.00;101050.09;5047982;28;20482;-83
2023/09/02 00:38:52;;;;;;;0.00;0.00;;;;;;;17.57;100.00;101058.66;5041716;28;20055;-83
2023/09/02 00:41:51;;;;;;;0.00;0.00;;;;;;;17.53;100.00;101062.63;5043595;28;20045;-83
2023/09/02 00:44:17;;;;;;;0.00;0.00;;;;;;;17.50;100.00;101059.53;5047562;28;20066;-83
2023/09/02 00:46:45;;;;;;;0.05;0.00;;;;;;;17.49;100.00;101058.69;5030259;28;20033;-83
2023/09/02 00:49:12;;;;;;;0.00;0.00;;;;;;;17.49;100.00;101068.41;5029142;28;20115;-82
2023/09/02 00:51:37;;;;;;;0.00;0.00;;;;;;;17.50;100.00;101060.34;5034579;28;20052;-83
2023/09/02 00:54:03;;;;;;;0.00;0.00;;;;;;;17.51;100.00;101056.72;5028458;28;20547;-83
2023/09/02 00:56:30;;;;;;;0.20;0.00;;;;;;;17.54;100.00;101060.81;5032951;28;20032;-83
2023/09/02 00:58:59;;;;;;;0.65;0.00;;;;;;;17.55;100.00;101058.00;5032067;28;20170;-83
2023/09/02 01:01:26;;;;;;;0.00;0.00;;;;;;;17.58;100.00;101064.72;5033998;28;20052;-83
2023/09/02 01:03:51;;;;;;;0.75;0.00;;;;;;;17.64;100.00;101058.75;5031820;28;20033;-83
2023/09/02 01:06:17;;;;;;;0.15;0.00;;;;;;;17.49;100.00;101061.34;5037039;28;20071;-83
2023/09/02 01:08:43;;;;;;;0.13;0.00;;;;;;;17.44;100.00;101065.50;5032297;28;21550;-83
2023/09/02 01:11:09;;;;;;;0.00;0.00;;;;;;;17.45;100.00;101062.69;5062789;28;20036;-83
2023/09/02 01:13:34;;;;;;;0.00;0.00;;;;;;;17.33;100.00;101064.09;5034679;28;20100;-83
2023/09/02 01:16:00;;;;;;;0.00;0.00;;;;;;;17.31;100.00;101063.44;5043577;28;20175;-83
2023/09/02 01:18:26;;;;;;;0.00;0.00;;;;;;;17.34;100.00;101062.28;5030560;28;20560;-83
2023/09/02 01:21:16;;;;;;;0.10;0.00;;;;;;;17.31;100.00;101067.91;5031670;28;20816;-83
2023/09/02 01:24:03;;;;;;;0.00;0.00;;;;;;;17.37;100.00;101060.13;5034085;28;20029;-83
2023/09/02 01:27:06;;;;;;;0.03;0.00;;;;;;;17.37;100.00;101060.13;5036252;28;20029;-83
2023/09/02 01:29:35;;;;;;;0.10;0.00;;;;;;;17.36;100.00;101063.75;5046886;28;20049;-83
2023/09/02 01:32:01;;;;;;;0.00;0.00;;;;;;;17.40;100.00;101061.59;5030844;28;20068;-82
2023/09/02 01:34:30;;;;;;;0.10;0.00;;;;;;;17.51;100.00;101050.63;5046231;28;20484;-83
2023/09/02 01:36:57;;;;;;;0.00;0.00;;;;;;;17.56;100.00;101061.44;5051205;28;20047;-83
2023/09/02 01:39:26;;;;;;;0.00;0.00;;;;;;;17.59;100.00;101063.75;5041129;28;20090;-83
2023/09/02 01:41:53;;;;;;;0.10;0.00;;;;;;;17.63;100.00;101061.56;5041734;28;20037;-83
2023/09/02 01:44:19;;;;;;;0.00;0.00;;;;;;;17.66;100.00;101053.34;5032808;28;20050;-83
2023/09/02 01:46:46;;;;;;;0.10;0.05;;;;;;;17.70;100.00;101058.09;5031360;28;20039;-83
2023/09/02 01:49:12;;;;;;;0.00;0.00;;;;;;;17.76;100.00;101046.03;5033470;28;20036;-83
2023/09/02 01:51:39;;;;;;;0.10;0.00;;;;;;;17.79;100.00;101050.94;5043000;28;20087;-83
2023/09/02 01:54:05;;;;;;;0.00;0.00;;;;;;;17.83;100.00;101049.59;5053566;28;20408;-83
2023/09/02 01:56:31;;;;;;;0.00;0.00;;;;;;;17.84;100.00;101049.44;5039521;28;20056;-83
2023/09/02 01:58:57;;;;;;;0.10;0.00;;;;;;;17.87;100.00;101050.88;5040346;28;20076;-83
2023/09/02 02:01:22;;;;;;;0.00;0.00;;;;;;;17.90;100.00;101038.16;5031026;28;20501;-83
2023/09/02 02:04:28;;;;;;;0.00;0.00;;;;;;;17.93;100.00;101039.63;5030464;28;20132;-83
2023/09/02 02:07:00;;;;;;;0.00;0.00;;;;;;;17.93;100.00;101034.38;5046990;28;20051;-83
2023/09/02 02:09:41;;;;;;;0.10;0.00;;;;;;;17.95;100.00;101042.91;5052482;28;20526;-83
2023/09/02 02:12:08;;;;;;;0.00;0.00;;;;;;;17.96;100.00;101033.97;5035536;28;20624;-83
2023/09/02 02:14:34;;;;;;;0.17;0.08;;;;;;;17.97;100.00;101035.63;5032181;28;20036;-83
2023/09/02 02:17:03;;;;;;;0.03;0.00;;;;;;;17.96;100.00;101031.34;5031084;28;20043;-83
2023/09/02 02:19:29;;;;;;;0.00;0.00;;;;;;;17.98;100.00;101026.72;5046806;28;20703;-83
2023/09/02 02:21:54;;;;;;;0.00;0.00;;;;;;;17.96;100.00;101027.91;5042124;28;20377;-83
2023/09/02 02:24:20;;;;;;;0.05;0.00;;;;;;;17.95;100.00;101026.28;5040450;28;20025;-83
2023/09/02 02:26:45;;;;;;;0.00;0.00;;;;;;;17.92;100.00;101026.63;5034874;28;20110;-83
2023/09/02 02:29:10;;;;;;;0.00;0.00;;;;;;;17.90;100.00;101029.44;5037104;28;20059;-83
2023/09/02 02:31:36;;;;;;;0.00;0.00;;;;;;;17.92;100.00;101024.81;5029805;28;20045;-84
2023/09/02 02:34:02;;;;;;;0.10;0.00;;;;;;;17.92;100.00;101032.72;5035671;28;20045;-83
2023/09/02 02:36:28;;;;;;;0.00;0.00;;;;;;;17.93;100.00;101029.09;5044043;28;20032;-83
2023/09/02 02:38:54;;;;;;;0.00;0.00;;;;;;;17.94;100.00;101029.91;5037243;28;20500;-83
2023/09/02 02:41:19;;;;;;;0.35;0.00;;;;;;;17.93;100.00;101034.38;5041160;28;20028;-84
2023/09/02 02:43:45;;;;;;;0.00;0.00;;;;;;;17.92;100.00;101027.44;5035246;28;20040;-83
2023/09/02 02:46:10;;;;;;;0.10;0.00;;;;;;;17.90;100.00;101027.63;5035528;28;20024;-84
2023/09/02 02:48:35;;;;;;;0.10;0.00;;;;;;;17.94;100.00;101030.72;5038623;28;20047;-83
2023/09/02 02:51:01;;;;;;;0.00;0.00;;;;;;;17.95;100.00;101028.91;5031804;28;21143;-83
2023/09/02 02:53:26;;;;;;;0.00;0.00;;;;;;;17.96;100.00;101027.91;5030651;28;20048;-83
2023/09/02 02:55:52;;;;;;;0.00;0.00;;;;;;;17.97;100.00;101030.34;5030794;28;20661;-83
2023/09/02 02:58:17;;;;;;;0.00;0.00;;;;;;;17.97;100.00;101024.25;5042113;28;20367;-83
2023/09/02 03:00:43;;;;;;;0.20;0.00;;;;;;;18.00;100.00;101029.16;5032703;28;21339;-83
2023/09/02 03:03:10;;;;;;;0.00;0.00;;;;;;;17.98;100.00;101026.72;5033253;28;20036;-83
2023/09/02 03:05:37;;;;;;;0.00;0.00;;;;;;;18.01;100.00;101021.06;5042474;28;20151;-83
2023/09/02 03:08:03;;;;;;;0.00;0.00;;;;;;;18.02;100.00;101024.53;5033380;28;20040;-83
2023/09/02 03:10:29;;;;;;;0.00;0.00;;;;;;;17.99;100.00;101025.72;5044238;28;20135;-83
2023/09/02 03:12:54;;;;;;;0.00;0.00;;;;;;;17.99;100.00;101016.97;5033409;28;20113;-83
2023/09/02 03:15:19;;;;;;;0.00;0.00;;;;;;;17.99;100.00;101012.53;5034255;28;20082;-83
2023/09/02 03:17:45;;;;;;;0.00;0.00;;;;;;;18.03;100.00;101021.72;5042809;28;20091;-83
2023/09/02 03:20:11;;;;;;;0.00;0.00;;;;;;;18.04;100.00;101017.25;5037984;28;20098;-83
2023/09/02 03:22:39;;;;;;;0.00;0.00;;;;;;;18.07;100.00;101017.72;5030139;28;20036;-83
2023/09/02 03:25:05;;;;;;;0.20;0.00;;;;;;;18.12;100.00;101019.81;5034903;28;20033;-83
2023/09/02 03:27:31;;;;;;;0.00;0.00;;;;;;;18.08;100.00;101023.81;5031831;28;20036;-83
2023/09/02 03:29:57;;;;;;;0.00;0.00;;;;;;;18.02;100.00;101017.44;5030790;28;20045;-83
2023/09/02 03:32:26;;;;;;;0.00;0.00;;;;;;;18.05;100.00;101021.53;5029878;28;20059;-84
2023/09/02 03:34:51;;;;;;;0.00;0.00;;;;;;;18.10;100.00;101021.81;5043113;28;20075;-83
2023/09/02 03:37:16;;;;;;;0.00;0.00;;;;;;;18.12;100.00;101028.56;5029349;28;20037;-83
2023/09/02 03:39:47;;;;;;;0.10;0.00;;;;;;;18.11;100.00;101026.09;5035184;28;20037;-83
2023/09/02 03:42:12;;;;;;;0.00;0.00;;;;;;;18.07;100.00;101030.09;5031795;28;20032;-83
2023/09/02 03:44:37;;;;;;;0.03;0.00;;;;;;;17.96;100.00;101028.69;5042823;28;20044;-83
2023/09/02 03:47:03;;;;;;;0.00;0.00;;;;;;;17.94;100.00;101022.81;5029687;28;20036;-83
2023/09/02 03:49:28;;;;;;;0.30;0.00;;;;;;;17.98;100.00;101031.97;5039144;28;20098;-83
2023/09/02 03:51:54;;;;;;;0.10;0.00;;;;;;;18.04;100.00;101031.25;5027074;28;20044;-83
2023/09/02 03:54:20;;;;;;;0.00;0.00;;;;;;;18.13;100.00;101034.66;5029405;28;20448;-83
2023/09/02 03:56:45;;;;;;;0.00;0.00;;;;;;;18.17;100.00;101031.47;5045904;28;20120;-83
2023/09/02 03:59:11;;;;;;;0.10;0.00;;;;;;;18.19;100.00;101031.28;5039176;28;20026;-83
2023/09/02 04:01:36;;;;;;;0.03;0.00;;;;;;;18.20;100.00;101032.94;5042995;28;21565;-83
2023/09/02 04:04:02;;;;;;;0.00;0.00;;;;;;;18.18;100.00;101033.13;5030201;28;20063;-83
2023/09/02 04:06:27;;;;;;;0.00;0.00;;;;;;;18.19;100.00;101033.94;5046007;28;20056;-83
2023/09/02 04:08:53;;;;;;;0.65;0.00;;;;;;;18.18;100.00;101038.38;5028853;28;20135;-84
2023/09/02 04:11:18;;;;;;;0.38;0.00;;;;;;;18.19;100.00;101040.03;5048063;28;20064;-83
2023/09/02 04:13:44;;;;;;;0.25;0.00;;;;;;;18.18;100.00;101046.31;5030075;28;20029;-83
2023/09/02 04:16:10;;;;;;;0.00;0.00;;;;;;;18.14;100.00;101034.47;5047299;28;20049;-83
2023/09/02 04:18:36;;;;;;;0.08;0.00;;;;;;;18.16;100.00;101034.28;5034731;28;20112;-84
2023/09/02 04:21:03;;;;;;;0.20;0.00;;;;;;;18.15;100.00;101041.38;5031096;28;20178;-83
2023/09/02 04:23:30;;;;;;;0.00;0.00;;;;;;;18.15;100.00;101038.75;5033322;28;20783;-83
2023/09/02 04:25:57;;;;;;;0.22;0.00;;;;;;;18.18;100.00;101037.56;5035744;28;20067;-83
2023/09/02 04:28:23;;;;;;;0.00;0.00;;;;;;;18.19;100.00;101037.38;5034817;28;20028;-83
2023/09/02 04:30:49;;;;;;;0.00;0.00;;;;;;;18.21;100.00;101037.22;5029196;28;20165;-84
2023/09/02 04:33:16;;;;;;;0.00;0.00;;;;;;;18.21;100.00;101042.47;5047124;28;20119;-83
2023/09/02 04:35:43;;;;;;;0.00;0.00;;;;;;;18.23;100.00;101048.41;5033237;28;20044;-83
2023/09/02 04:38:10;;;;;;;0.10;0.00;;;;;;;18.24;100.00;101042.94;5032367;28;20454;-83
2023/09/02 04:40:39;;;;;;;0.00;0.00;;;;;;;18.24;100.00;101042.94;5033986;28;20036;-83
2023/09/02 04:43:06;;;;;;;0.00;0.00;;;;;;;18.27;100.00;101048.84;5050447;28;20039;-83
2023/09/02 04:45:33;;;;;;;0.10;0.00;;;;;;;18.27;100.00;101040.94;5041911;28;20028;-84
2023/09/02 04:47:58;;;;;;;0.00;0.00;;;;;;;18.26;100.00;101045.41;5050017;28;20115;-83
2023/09/02 04:50:24;;;;;;;0.00;0.00;;;;;;;18.26;100.00;101049.84;5049813;28;20179;-83
2023/09/02 04:52:50;;;;;;;0.03;0.00;;;;;;;18.24;100.00;101050.84;5032453;28;20496;-83
2023/09/02 04:55:16;;;;;;;0.00;0.00;;;;;;;18.22;100.00;101050.22;5032119;28;20078;-84
2023/09/02 04:57:42;;;;;;;0.00;0.00;;;;;;;18.22;100.00;101049.41;5043446;28;20123;-83
2023/09/02 05:00:09;;;;;;;0.00;0.00;;;;;;;18.22;100.00;101050.22;5037673;28;20036;-83
2023/09/02 05:02:34;;;;;;;0.10;0.00;;;;;;;18.22;100.00;101052.84;5044018;28;20379;-84
2023/09/02 05:05:00;;;;;;;0.03;0.00;;;;;;;18.22;100.00;101052.84;5034798;28;20100;-84
2023/09/02 05:07:25;;;;;;;0.38;0.03;;;;;;;18.22;100.00;101049.41;5033040;28;20033;-84
2023/09/02 05:09:51;;;;;;;0.00;0.00;;;;;;;18.22;100.00;101047.59;5047236;28;20056;-84
2023/09/02 05:12:16;;;;;;;0.00;0.00;;;;;;;18.24;100.00;101047.41;5037162;28;20383;-84
2023/09/02 05:14:42;;;;;;;0.10;0.00;;;;;;;18.23;100.00;101043.13;5055586;28;20029;-84
2023/09/02 05:17:07;;;;;;;0.00;0.00;;;;;;;18.26;100.00;101044.59;5043570;28;20033;-84
2023/09/02 05:19:33;;;;;;;0.00;0.00;;;;;;;18.29;100.00;101047.69;5035314;28;20390;-83
2023/09/02 05:21:58;;;;;;;0.15;0.00;;;;;;;18.34;100.00;101053.25;5047283;28;20091;-83
2023/09/02 05:24:24;;;;;;;0.00;0.00;;;;;;;18.32;100.00;101057.88;5039069;28;20086;-83
2023/09/02 05:26:49;;;;;;;0.08;0.00;;;;;;;18.35;100.00;101059.34;5035372;28;20029;-84
2023/09/02 05:29:15;;;;;;;0.00;0.00;;;;;;;18.32;100.00;101057.06;5040947;28;20155;-84
2023/09/02 05:31:40;;;;;;;0.00;0.00;;;;;;;18.33;100.00;101056.88;5039703;28;20028;-84
2023/09/02 05:34:06;;;;;;;0.10;0.00;;;;;;;18.34;100.00;101057.69;5035202;28;20040;-84
2023/09/02 05:36:31;;;;;;;0.10;0.00;;;;;;;18.37;100.00;101058.16;5029396;28;20032;-83
2023/09/02 05:38:57;;;;;;;0.00;0.00;;;;;;;18.42;100.00;101060.25;5031859;28;20512;-84
2023/09/02 05:41:24;;;;;;;0.03;0.00;;;;;;;18.49;100.00;101071.69;5035947;28;20029;-83
2023/09/02 05:43:50;;;;;;;0.00;0.00;;;;;;;18.50;100.00;101068.06;5050050;28;20029;-83
2023/09/02 05:46:15;;;;;;;0.00;0.00;;;;;;;18.47;100.00;101063.97;5039589;28;20064;-83
2023/09/02 05:48:40;;;;;;;0.13;0.00;;;;;;;18.48;100.00;101068.22;5043413;28;20478;-84
2023/09/02 05:51:06;;;;;;;0.00;0.00;;;;;;;18.46;100.00;101067.59;5031263;28;20116;-84
2023/09/02 05:53:31;;;;;;;0.00;0.00;;;;;;;18.47;100.00;101066.59;5031702;28;20135;-84
2023/09/02 05:55:57;;;;;;;0.00;0.00;;;;;;;18.53;100.00;101059.78;5033866;28;20037;-84
2023/09/02 05:58:26;;;;;;;0.00;0.00;;;;;;;18.60;100.00;101067.78;5042377;28;20492;-84
2023/09/02 06:00:51;;;;;;;0.03;0.00;;;;;;;18.65;100.00;101068.91;5034883;28;20512;-84
2023/09/02 06:03:17;;;;;;;0.30;0.10;;;;;;;18.70;100.00;101061.28;5034056;28;20029;-84
2023/09/02 06:05:43;;;;;;;0.10;0.05;;;;;;;18.76;100.00;101063.19;5046555;28;20044;-84
2023/09/02 06:08:08;;;;;;;0.32;0.10;;;;;;;18.80;100.00;101069.72;5035840;28;20023;-84
2023/09/02 06:10:34;;;;;;;0.00;0.00;;;;;;;18.85;100.00;101062.09;5030371;28;20064;-84
2023/09/02 06:12:59;;;;;;;0.00;0.00;;;;;;;18.88;100.00;101066.19;5033091;28;20033;-84
2023/09/02 06:15:25;;;;;;;0.00;0.00;;;;;;;18.92;100.00;101066.59;5036321;28;20055;-84
2023/09/02 06:17:50;;;;;;;0.10;0.00;;;;;;;18.97;100.00;101070.31;5041354;28;20048;-84
2023/09/02 06:20:20;;;;;;;0.17;0.00;;;;;;;19.00;100.00;101067.31;5041383;28;20029;-84
2023/09/02 06:22:45;;;;;;;0.00;0.00;;;;;;;19.05;100.00;101067.59;5033459;28;20036;-83
2023/09/02 06:25:11;;;;;;;0.08;0.00;;;;;;;19.09;100.00;101070.69;5034886;28;20386;-84
2023/09/02 06:27:37;;;;;;;0.00;0.00;;;;;;;19.13;100.00;101071.94;5034089;28;21168;-83
2023/09/02 06:30:03;;;;;;;0.20;0.00;;;;;;;19.20;100.00;101065.75;5049377;28;20124;-84
2023/09/02 06:32:28;;;;;;;0.00;0.00;;;;;;;19.29;100.00;101076.19;5040158;28;20039;-83
2023/09/02 06:34:54;;;;;;;0.10;0.00;;;;;;;19.31;100.00;101074.19;5040466;28;20028;-84
2023/09/02 06:37:19;;;;;;;0.00;0.00;;;;;;;19.40;100.00;101076.50;5046687;28;20033;-83
2023/09/02 06:39:45;;;;;;;0.00;0.00;;;;;;;19.49;100.00;101078.03;5034928;28;20036;-83
2023/09/02 06:42:10;;;;;;;1.20;0.00;;;;;;;19.46;100.00;101082.88;5030974;28;20035;-84
2023/09/02 06:44:36;;;;;;;0.10;0.00;;;;;;;19.52;100.00;101082.97;5034276;28;20041;-84
2023/09/02 06:47:02;;;;;;;0.05;0.00;;;;;;;19.59;100.00;101083.03;5046461;28;20065;-84
2023/09/02 06:49:30;;;;;;;0.05;0.00;;;;;;;19.63;100.00;101078.19;5035930;28;20474;-84
2023/09/02 06:51:55;;;;;;;0.00;0.00;;;;;;;19.67;100.00;101082.09;5033665;28;20029;-84
2023/09/02 06:54:21;;;;;;;0.00;0.00;;;;;;;19.70;100.00;101082.53;5035497;28;20110;-83
2023/09/02 06:56:46;;;;;;;0.10;0.00;;;;;;;19.74;100.00;101082.97;5032397;28;20143;-84
2023/09/02 06:59:12;;;;;;;0.00;0.00;;;;;;;19.80;100.00;101082.22;5039414;28;20029;-86
2023/09/02 07:01:38;;;;;;;0.03;0.00;;;;;;;19.86;100.00;101081.44;5051043;28;20040;-85
2023/09/02 07:04:03;;;;;;;0.00;0.00;;;;;;;19.94;100.00;101089.25;5035438;28;20039;-86
2023/09/02 07:06:29;;;;;;;0.10;0.00;;;;;;;20.06;100.00;101082.44;5032292;28;20071;-85
2023/09/02 07:08:54;;;;;;;0.00;0.00;;;;;;;20.11;100.00;101085.31;5035113;28;20497;-87
2023/09/02 07:11:20;;;;;;;0.00;0.00;;;;;;;20.17;100.00;101089.84;5037440;28;20024;-85
2023/09/02 07:13:48;;;;;;;0.30;0.00;;;;;;;20.21;100.00;101096.41;5036531;28;20515;-86
2023/09/02 07:16:15;;;;;;;0.00;0.00;;;;;;;20.33;100.00;101101.13;5037558;28;20449;-85
2023/09/02 07:18:40;;;;;;;0.00;0.00;;;;;;;20.45;100.00;101099.63;5041402;28;20048;-86
2023/09/02 07:21:07;;;;;;;0.00;0.00;;;;;;;20.56;100.00;101109.69;5039374;28;20037;-85
2023/09/02 07:23:33;;;;;;;0.00;0.00;;;;;;;20.75;100.00;101103.69;5037338;28;20319;-86
2023/09/02 07:26:00;;;;;;;0.00;0.00;;;;;;;20.80;100.00;101109.19;5032977;28;20029;-85
2023/09/02 07:28:30;;;;;;;0.57;0.00;;;;;;;20.85;100.00;101109.44;5040903;28;20036;-86
2023/09/02 07:30:58;;;;;;;0.00;0.00;;;;;;;20.90;100.00;101111.50;5034354;28;20555;-85
2023/09/02 07:33:26;;;;;;;0.00;0.00;;;;;;;21.04;100.00;101123.78;5037233;28;20098;-86
2023/09/02 07:35:51;;;;;;;0.00;0.00;;;;;;;21.03;100.00;101121.34;5035453;28;20146;-86
2023/09/02 07:38:17;;;;;;;0.00;0.00;;;;;;;21.11;100.00;101123.81;5038487;28;20032;-86
2023/09/02 07:40:42;;;;;;;0.10;0.00;;;;;;;21.23;100.00;101124.94;5037495;28;20037;-86
2023/09/02 07:43:08;;;;;;;0.05;0.00;;;;;;;21.34;100.00;101118.22;5066308;28;20028;-85
2023/09/02 07:45:33;;;;;;;0.00;0.00;;;;;;;21.42;100.00;101126.00;5064956;28;20114;-85
2023/09/02 07:47:59;;;;;;;0.00;0.00;;;;;;;21.51;100.00;101124.78;5069612;28;20013;-85
2023/09/02 07:50:24;;;;;;;0.10;0.00;;;;;;;21.65;99.92;101128.31;5074147;28;20766;-85
2023/09/02 07:52:50;;;;;;;0.00;0.00;;;;;;;21.71;100.00;101125.66;5064242;28;20026;-85
2023/09/02 07:55:15;;;;;;;0.10;0.00;;;;;;;21.85;100.00;101123.84;5063804;28;20021;-85
2023/09/02 07:57:41;;;;;;;0.10;0.00;;;;;;;21.95;100.00;101121.59;5063268;28;20250;-85
2023/09/02 08:00:08;;;;;;;0.00;0.00;;;;;;;22.07;100.00;101121.84;5066514;28;20403;-85
2023/09/02 08:02:33;;;;;;;0.00;0.00;;;;;;;22.17;100.00;101125.72;5079237;28;20024;-86
2023/09/02 08:04:59;;;;;;;0.00;0.00;;;;;;;22.32;100.00;101125.50;5062325;28;20075;-85
2023/09/02 08:07:24;;;;;;;0.10;0.00;;;;;;;22.44;100.00;101123.03;5056396;28;20055;-85
2023/09/02 08:09:50;;;;;;;0.10;0.00;;;;;;;22.47;100.00;101126.09;5037263;28;20033;-85
2023/09/02 08:12:16;;;;;;;0.13;0.00;;;;;;;22.51;97.69;101131.81;5049301;28;20049;-85
2023/09/02 08:14:41;;;;;;;0.10;0.00;;;;;;;22.54;99.30;101128.75;5083266;28;20064;-85
2023/09/02 08:17:07;;;;;;;0.28;0.05;;;;;;;22.65;100.00;101137.94;5073833;28;20021;-86
2023/09/02 08:19:33;;;;;;;0.30;0.00;;;;;;;22.64;100.00;101139.75;5073387;28;20033;-85
2023/09/02 08:21:58;;;;;;;0.00;0.00;;;;;;;22.87;100.00;101136.66;5067969;28;20016;-86
2023/09/02 08:24:24;;;;;;;0.00;0.00;;;;;;;22.88;97.19;101134.81;5069586;28;20121;-85
2023/09/02 08:26:49;;;;;;;0.00;0.00;;;;;;;22.81;100.00;101137.50;5066524;28;20061;-87
2023/09/02 08:29:15;;;;;;;0.10;0.00;;;;;;;22.79;100.00;101137.69;5057021;28;20398;-86
2023/09/02 08:31:40;;;;;;;0.00;0.00;;;;;;;22.89;100.00;101131.13;5048860;28;20032;-86
2023/09/02 08:34:06;;;;;;;0.00;0.00;;;;;;;22.90;97.51;101133.59;5041224;28;20115;-85
2023/09/02 08:36:31;;;;;;;0.00;0.00;;;;;;;22.79;94.60;101129.72;5049938;28;20402;-85
2023/09/02 08:38:57;;;;;;;0.00;0.00;;;;;;;22.82;92.93;101128.50;5040011;28;20071;-85
2023/09/02 08:41:26;;;;;;;0.00;0.00;;;;;;;22.90;92.70;101132.78;5037719;28;20033;-85
2023/09/02 08:43:56;;;;;;;0.00;0.00;;;;;;;22.89;92.38;101131.13;5048360;28;20040;-85
2023/09/02 08:46:26;;;;;;;0.00;0.00;;;;;;;22.91;95.13;101129.09;5044634;28;20521;-85
2023/09/02 08:48:56;;;;;;;0.00;0.00;;;;;;;22.97;98.50;101131.72;5052840;28;20025;-86
2023/09/02 08:51:23;;;;;;;0.20;0.00;;;;;;;23.03;97.84;101130.06;5043081;28;20550;-86
2023/09/02 08:53:50;;;;;;;0.00;0.00;;;;;;;22.98;95.84;101125.38;5065099;28;20056;-85
2023/09/02 08:56:16;;;;;;;0.00;0.00;;;;;;;23.05;99.39;101134.16;5039611;28;20500;-86
2023/09/02 08:58:43;;;;;;;0.00;0.00;;;;;;;23.15;100.00;101133.72;5039208;28;20120;-86
2023/09/02 09:01:11;;;;;;;0.05;0.00;;;;;;;23.28;100.00;101130.97;5036570;28;20041;-85
2023/09/02 09:03:39;;;;;;;0.00;0.00;;;;;;;23.22;99.30;101136.31;5035225;28;20060;-85
2023/09/02 09:06:10;;;;;;;0.10;0.00;;;;;;;23.18;100.00;101138.56;5046688;28;20385;-85
2023/09/02 09:08:36;;;;;;;0.08;0.00;;;;;;;23.15;98.35;101139.03;5058279;28;20159;-85
2023/09/02 09:11:06;;;;;;;0.05;0.00;;;;;;;23.05;94.33;101150.09;5057511;28;20072;-85
2023/09/02 09:13:35;;;;;;;0.30;0.10;;;;;;;23.03;93.72;101151.34;5041663;28;20025;-85
2023/09/02 09:16:01;;;;;;;0.10;0.00;;;;;;;23.08;93.23;101148.88;5053333;28;20112;-86
2023/09/02 09:18:27;;;;;;;0.03;0.00;;;;;;;23.13;97.41;101147.22;5049545;28;20112;-86
2023/09/02 09:20:54;;;;;;;0.20;0.10;;;;;;;23.08;98.67;101152.34;5045495;28;20045;-85
2023/09/02 09:23:19;;;;;;;0.00;0.00;;;;;;;23.16;100.00;101151.25;5049939;28;20544;-85
2023/09/02 09:25:49;;;;;;;0.00;0.00;;;;;;;23.21;100.00;101151.44;5045483;28;20037;-86
2023/09/02 09:28:15;;;;;;;0.00;0.00;;;;;;;23.24;100.00;101145.72;5038847;28;20184;-88
2023/09/02 09:30:40;;;;;;;0.10;0.00;;;;;;;23.21;99.77;101145.31;5051663;28;20529;-85
2023/09/02 09:33:06;;;;;;;0.20;0.10;;;;;;;23.18;95.09;101149.22;5044623;28;20402;-85
2023/09/02 09:35:32;;;;;;;0.35;0.00;;;;;;;23.17;92.20;101151.06;5054104;28;20147;-85
2023/09/02 09:37:59;;;;;;;0.00;0.00;;;;;;;23.08;97.19;101148.88;5049204;28;20120;-85
2023/09/02 09:40:31;;;;;;;0.00;0.00;;;;;;;23.03;98.52;101152.16;5036885;28;21659;-85
2023/09/02 09:43:00;;;;;;;0.10;0.00;;;;;;;22.99;96.03;101142.97;5049982;28;20040;-86
2023/09/02 09:45:27;;;;;;;0.08;0.00;;;;;;;23.07;98.13;101145.41;5047058;28;20055;-84
2023/09/02 09:47:56;;;;;;;0.10;0.10;;;;;;;23.15;95.48;101144.34;5048704;28;20124;-85
2023/09/02 09:50:21;;;;;;;0.13;0.00;;;;;;;23.22;98.91;101136.31;5050337;28;20095;-85
2023/09/02 09:52:59;;;;;;;0.10;0.00;;;;;;;;;;5035523;28;20049;-85
2023/09/02 09:55:24;;;;;;;0.00;0.00;;;;;;;23.26;99.14;101130.38;5046876;28;20439;-86
2023/09/02 09:57:54;;;;;;;0.00;0.00;;;;;;;23.26;100.00;101135.69;5056964;28;20120;-85
2023/09/02 10:00:20;;;;;;;0.10;0.00;;;;;;;23.26;100.00;101127.72;5047262;28;20099;-86
2023/09/02 10:02:52;;;;;;;0.00;0.00;;;;;;;23.43;100.00;101130.69;5049160;28;20049;-85
2023/09/02 10:05:29;;;;;;;0.13;0.00;;;;;;;23.54;100.00;101135.38;5049978;28;20032;-85
2023/09/02 10:08:06;;;;;;;0.30;0.17;;;;;;;23.49;98.19;101140.50;5048690;28;20108;-85
2023/09/02 10:10:33;;;;;;;0.10;0.00;;;;;;;23.53;100.00;101140.88;5052924;28;20119;-87
2023/09/02 10:12:58;;;;;;;0.00;0.00;;;;;;;23.52;97.64;101134.75;5042628;28;20033;-86
2023/09/02 10:15:26;;;;;;;0.20;0.10;;;;;;;23.54;99.67;101137.22;5045866;28;20040;-86
2023/09/02 10:17:58;;;;;;;0.08;0.00;;;;;;;23.36;98.15;101136.06;5036707;28;20487;-86
2023/09/02 10:20:29;;;;;;;0.30;0.00;;;;;;;23.22;100.00;101133.66;5048849;28;20059;-84
2023/09/02 10:23:05;;;;;;;0.10;0.10;;;;;;;23.22;100.00;101134.47;5054865;28;20064;-86
2023/09/02 10:25:55;;;;;;;0.00;0.00;;;;;;;23.37;98.87;101132.38;5042321;28;20040;-86
2023/09/02 10:28:27;;;;;;;0.03;0.00;;;;;;;23.58;95.52;101133.94;5041404;28;20036;-86
2023/09/02 10:30:58;;;;;;;0.03;0.00;;;;;;;23.63;97.40;101135.94;5060910;28;20068;-87
2023/09/02 10:33:38;;;;;;;0.05;0.00;;;;;;;23.69;98.33;101137.72;5060568;28;20440;-88
2023/09/02 10:36:06;;;;;;;0.03;0.00;;;;;;;23.71;97.69;101133.81;5044139;28;20053;-87
2023/09/02 10:38:44;;;;;;;0.10;0.00;;;;;;;23.63;93.05;101131.41;5053160;28;20021;-86
2023/09/02 10:41:14;;;;;;;0.25;0.00;;;;;;;23.67;99.15;101127.31;5051489;28;20029;-86
2023/09/02 10:43:41;;;;;;;0.00;0.00;;;;;;;23.58;98.37;101133.13;5049565;28;20060;-86
2023/09/02 10:46:08;;;;;;;0.25;0.00;;;;;;;23.45;98.55;101123.34;5044493;28;20040;-88
2023/09/02 10:48:36;;;;;;;0.10;0.00;;;;;;;23.44;97.26;101124.34;5051202;28;20021;-87
2023/09/02 10:51:04;;;;;;;0.10;0.00;;;;;;;23.48;99.21;101130.88;5048412;28;20470;-87
2023/09/02 10:53:48;;;;;;;0.10;0.00;;;;;;;23.53;97.35;101131.09;5045807;28;20086;-87
2023/09/02 10:56:32;;;;;;;0.00;0.00;;;;;;;23.58;95.74;101128.63;5047048;28;20040;-87
2023/09/02 10:58:59;;;;;;;0.10;0.00;;;;;;;23.59;100.00;101129.44;5046044;28;20025;-87
2023/09/02 11:01:25;;;;;;;0.10;0.00;;;;;;;23.68;100.00;101128.13;5046909;28;20112;-88
2023/09/02 11:03:54;;;;;;;0.00;0.00;;;;;;;23.75;100.00;101134.22;5066466;28;20147;-87
2023/09/02 11:06:20;;;;;;;0.00;0.00;;;;;;;23.78;100.00;101136.44;5067228;28;20032;-88
2023/09/02 11:08:45;;;;;;;0.22;0.00;;;;;;;23.81;100.00;101130.69;5050172;28;20122;-88
2023/09/02 11:11:11;;;;;;;0.00;0.00;;;;;;;23.80;99.46;101135.19;5046233;28;20033;-88
2023/09/02 11:14:16;;;;;;;0.10;0.00;;;;;;;23.76;98.02;101133.19;5050035;28;20037;-88
2023/09/02 11:16:42;;;;;;;0.10;0.00;;;;;;;23.73;96.17;101133.59;5047629;28;20083;-87
2023/09/02 11:19:08;;;;;;;0.00;0.00;;;;;;;23.60;92.41;101137.19;5049573;28;20059;-85
2023/09/02 11:21:46;;;;;;;0.10;0.00;;;;;;;23.49;97.70;101136.00;5051422;28;20552;-86